• Join FlightAware (Why Join?)
  • Login
  • US Flag 
08:16AM EDT


 

Airport Tracker/Info


-or-


 

Live Flight TrackerFlight Track Log ✈ ABX2230 ✈ 23-Jun-2013 ✈ MDSD / SDQ - KMIA

Flight Track Log - Related Links

Times and Time Zones

All times are in EDT time to prevent confusion due to time zone crossing. See the ABX2230 flight status page for this flight to view local times or setup timezone preferences in your user account.

Time Position Orientation Groundspeed Altitude Reporting Facility
EDT Latitude Longitude Course Direction KTS MPH feet Rate Location/Type
03:46PM 18.7572 -70.1289 332° Northwest 462 532 17,600  Level Miami Center
03:47PM 18.8703 -70.1936 332° Northwest 462 532 19,100 1,980 Climbing Miami Center
03:48PM 18.9828 -70.2475 336° Northwest 457 526 21,600 1,860 Climbing Miami Center
03:49PM 19.0903 -70.3300 324° Northwest 463 533 22,900 1,200 Climbing Miami Center
03:50PM 19.2094 -70.3947 333° Northwest 473 544 24,000 1,200 Climbing Miami Center
03:51PM 19.3292 -70.4725 328° Northwest 488 562 25,300 1,740 Climbing Miami Center
03:52PM 19.4508 -70.5461 330° Northwest 501 577 27,500 2,100 Climbing Miami Center
03:53PM 19.5683 -70.6200 329° Northwest 501 577 29,600 1,920 Climbing Miami Center
03:54PM 19.6853 -70.6850 332° Northwest 495 570 31,400 1,560 Climbing Miami Center
03:55PM 19.8006 -70.7572 329° Northwest 495 570 32,800 1,500 Climbing Miami Center
03:56PM 19.9200 -70.8269 331° Northwest 488 562 34,400 1,500 Climbing Miami Center
03:57PM 20.0353 -70.8989 330° Northwest 488 562 35,900 780 Climbing Miami Center
03:58PM 20.1525 -70.9667 332° Northwest 483 556 36,000  Climbing Miami Center
03:59PM 20.2697 -71.0369 331° Northwest 483 556 36,000  Level Miami Center
04:00PM 20.3869 -71.1069 331° Northwest 478 550 36,000  Level Miami Center
04:01PM 20.4719 -71.2075 312° West 451 519 36,000  Level Miami Center
04:02PM 20.5428 -71.3197 304° West 457 526 36,000  Level Miami Center
04:03PM 20.6175 -71.4339 305° West 463 533 36,000  Level Miami Center
04:04PM 20.6883 -71.5508 303° West 463 533 36,000  Level Miami Center
04:05PM 20.7611 -71.6656 304° West 468 539 36,000  Level Miami Center
04:06PM 20.8250 -71.7675 304° West 468 539 36,000  Level Miami Center
04:07PM 20.8997 -71.8844 304° West 468 539 36,000  Level Miami Center
04:08PM 20.9722 -72.0039 303° West 468 539 36,000  Level Miami Center
04:09PM 21.0447 -72.1192 304° West 468 539 36,000  Level Miami Center
04:10PM 21.1172 -72.2367 303° West 468 539 36,000  Level Miami Center
04:11PM 21.1894 -72.3519 304° West 468 539 36,000  Level Miami Center
04:12PM 21.2617 -72.4697 303° West 473 544 36,000  Level Miami Center
04:13PM 21.3339 -72.5856 304° West 473 544 36,000  Level Miami Center
04:14PM 21.4058 -72.7014 304° West 473 544 36,000  Level Miami Center
04:15PM 21.4778 -72.8194 303° West 473 544 36,000  Level Miami Center
04:16PM 21.5478 -72.9356 303° West 473 544 36,000  Level Miami Center
04:17PM 21.6175 -73.0519 303° West 473 544 36,000  Level Miami Center
04:18PM 21.6850 -73.1661 302° West 462 532 36,000  Level Miami Center
04:19PM 21.7567 -73.2825 304° West 462 532 36,000  Level Miami Center
04:20PM 21.8261 -73.4014 302° West 467 537 36,000  Level Miami Center
04:21PM 21.8956 -73.5181 303° West 467 537 36,000  Level Miami Center
04:22PM 21.9650 -73.6372 302° West 467 537 36,000  Level Miami Center
04:23PM 22.0303 -73.7700 298° West 461 531 36,000  Level Miami Center
04:24PM 22.1036 -73.8869 304° West 461 531 36,000  Level Miami Center
04:25PM 22.1747 -74.0089 302° West 467 537 36,000  Level Miami Center
04:26PM 22.2458 -74.1283 303° West 472 543 36,000  Level Miami Center
04:27PM 22.3150 -74.2481 302° West 472 543 36,000  Level Miami Center
04:28PM 22.3900 -74.3703 304° West 472 543 36,000  Level Miami Center
04:29PM 22.4608 -74.4878 303° West 472 543 36,000  Level Miami Center
04:30PM 22.5317 -74.6125 302° West 472 543 36,000  Level Miami Center
04:31PM 22.6067 -74.7306 305° West 472 543 36,000  Level Miami Center
04:32PM 22.6750 -74.8553 301° West 477 549 36,000  Level Miami Center
04:33PM 22.7478 -74.9758 303° West 477 549 36,000 600 Level Miami Center
04:34PM 22.8203 -75.0942 304° West 477 549 37,300 960 Climbing Miami Center
04:35PM 22.8883 -75.2150 301° West 477 549 38,000 300 Climbing Miami Center
04:36PM 22.9586 -75.3339 303° West 477 549 38,000  Level Miami Center
04:37PM 23.0286 -75.4547 302° West 477 549 38,000  Level Miami Center
04:38PM 23.0903 -75.5603 302° West 477 549 38,000  Level Miami Center
04:39PM 23.1603 -75.6794 303° West 477 549 38,000  Level Miami Center
04:40PM 23.2281 -75.8031 301° West 472 543 38,000  Level Miami Center
04:41PM 23.2978 -75.9269 302° West 472 543 38,000  Level Miami Center
04:42PM 23.3694 -76.0464 303° West 472 543 38,000  Level Miami Center
04:43PM 23.4392 -76.1706 301° West 472 543 38,000  Level Miami Center
04:44PM 23.5086 -76.2903 302° West 472 543 38,000  Level Miami Center
04:45PM 23.5781 -76.4100 302° West 472 543 38,000  Level Miami Center
04:46PM 23.6450 -76.5300 301° West 472 543 38,000  Level Miami Center
04:47PM 23.7144 -76.6500 302° West 472 543 38,000  Level Miami Center
04:48PM 23.7897 -76.7817 302° West 472 543 38,000  Level Miami Center
04:49PM 23.8544 -76.8997 301° West 467 537 38,000  Level Miami Center
04:50PM 23.9192 -77.0133 302° West 456 525 38,000  Level Miami Center
04:51PM 23.9858 -77.1294 302° West 450 518 38,000  Level Miami Center
04:52PM 24.0483 -77.2458 300° West 450 518 38,000  Level Miami Center
04:53PM 24.1150 -77.3667 301° West 450 518 38,000  Level Miami Center
04:54PM 24.1792 -77.4831 301° West 455 524 38,000  Level Miami Center
04:55PM 24.2478 -77.6019 302° West 455 524 38,000  Level Miami Center
04:56PM 24.3139 -77.7231 301° West 455 524 38,000  Level Miami Center
04:57PM 24.3800 -77.8444 301° West 455 524 38,000  Level Miami Center
04:58PM 24.4419 -77.9636 300° West 455 524 38,000  Level Miami Center
04:59PM 24.5078 -78.0831 301° West 462 532 38,000  Level Miami Center
05:00PM 24.5717 -78.2003 301° West 457 526 38,000  Level Miami Center
05:01PM 24.6333 -78.3175 300° West 452 520 38,000  Level Miami Center
05:02PM 24.6989 -78.4347 302° West 452 520 38,000  Level Miami Center
05:03PM 24.7603 -78.5522 300° West 452 520 38,000 -960 Level Miami Center
05:04PM 24.8236 -78.6700 301° West 452 520 36,100 -1,020 Descending Miami Center
05:05PM 24.8911 -78.7878 302° West 452 520 36,000 -60 Descending Miami Center
05:06PM 24.9542 -78.9125 299° West 452 520 36,000 -1,020 Level Miami Center
05:07PM 25.0111 -79.0211 300° West 458 527 34,000 -2,400 Descending Miami Center
05:08PM 25.0342 -79.1547 281° West 448 516 31,300 -2,520 Descending Miami Center
05:09PM 25.0697 -79.2839 287° West 448 516 29,000 -2,400 Descending Miami Center
05:10PM 25.1733 -79.3433 333° Northwest 387 445 26,600 -2,400 Descending Miami Center
05:11PM 25.2881 -79.3525 356° North 377 434 24,200 -2,460 Descending Miami Center
05:12PM 25.3986 -79.3639 355° North 388 447 21,700 -3,000 Descending Miami Center
05:13PM 25.4919 -79.4097 336° Northwest 388 447 18,200 -2,520 Descending Miami Center
05:14PM 25.4794 -79.5197 263° West 285 328 16,700 -2,280 Descending Miami Center
05:15PM 25.4381 -79.6200 245° Southwest 295 339 13,700 -2,640 Descending Miami Center
05:16PM 25.4050 -79.7022 246° West 343 395 12,300 -1,560 Descending Miami Center
05:17PM 25.4197 -79.8039 279° West 339 390 11,100 -1,020 Descending Miami Center
05:18PM 25.4386 -79.9078 281° West 340 391 10,300 -540 Descending Miami Center
05:19PM 25.4850 -79.9872 303° West 311 358 10,100 -360 Descending Miami Center
05:20PM 25.5483 -80.0442 321° Northwest 273 314 9,600 -780 Descending Miami Center
05:21PM 25.6078 -80.0964 322° Northwest 258 297 8,600 -840 Descending Miami Center
05:22PM 25.6569 -80.1506 315° West 246 283 8,000 -300 Descending Miami Center
05:23PM 25.6697 -80.2247 281° West 250 288 8,000 -480 Level Miami Center
05:24PM 25.6869 -80.3014 284° West 249 287 7,100 -1,080 Descending Miami Center
05:25PM 25.6828 -80.3819 267° West 242 278 5,800 -1,200 Descending Miami Center
05:26PM 25.6831 -80.4603 270° West 238 274 4,600 -1,200 Descending Miami Center
05:27PM 25.7347 -80.4803 341° North 230 265 3,500 -1,320 Descending Miami Center
05:28PM 25.7753 -80.4444 39° Northeast 212 244 2,200 -1,200 Descending Miami Center
05:29PM 25.7789 -80.3825 86° East 184 212 1,200 -900 Descending Miami Center
05:30PM 25.7819 -80.3386 86° East 132 152 400 -840 Descending Miami Center
05:32PM 25.7833 -80.2833 77° East  Level FlightAware Approximate
05:39PM 25.7954 -80.2901 77° East  Level Estimated